sensor_id;sensor_type;location;lat;lon;timestamp;pressure;altitude;pressure_sealevel;temperature;humidity
11085;BME280;5596;46.826;8.650;2023-05-23T00:00:43;96111.31;;;16.46;100.00
11085;BME280;5596;46.826;8.650;2023-05-23T00:03:12;96107.22;;;16.43;100.00
11085;BME280;5596;46.826;8.650;2023-05-23T00:05:40;96106.97;;;16.30;100.00
11085;BME280;5596;46.826;8.650;2023-05-23T00:08:08;96103.41;;;16.14;100.00
11085;BME280;5596;46.826;8.650;2023-05-23T00:10:35;96104.75;;;16.11;100.00
11085;BME280;5596;46.826;8.650;2023-05-23T00:13:02;96095.78;;;16.06;100.00
11085;BME280;5596;46.826;8.650;2023-05-23T00:15:29;96091.69;;;16.03;100.00
11085;BME280;5596;46.826;8.650;2023-05-23T00:17:58;96096.84;;;15.95;100.00
11085;BME280;5596;46.826;8.650;2023-05-23T00:20:25;96087.59;;;15.91;100.00
11085;BME280;5596;46.826;8.650;2023-05-23T00:22:52;96090.28;;;15.75;100.00
11085;BME280;5596;46.826;8.650;2023-05-23T00:25:24;96088.06;;;15.62;100.00
11085;BME280;5596;46.826;8.650;2023-05-23T00:27:58;96081.50;;;15.58;100.00
11085;BME280;5596;46.826;8.650;2023-05-23T00:30:26;96087.25;;;15.62;100.00
11085;BME280;5596;46.826;8.650;2023-05-23T00:32:53;96078.81;;;15.68;100.00
11085;BME280;5596;46.826;8.650;2023-05-23T00:35:20;96083.72;;;15.66;100.00
11085;BME280;5596;46.826;8.650;2023-05-23T00:37:48;96081.81;;;15.67;100.00
11085;BME280;5596;46.826;8.650;2023-05-23T00:40:16;96079.66;;;15.64;100.00
11085;BME280;5596;46.826;8.650;2023-05-23T00:42:44;96068.41;;;15.50;100.00
11085;BME280;5596;46.826;8.650;2023-05-23T00:45:12;96073.81;;;15.40;100.00
11085;BME280;5596;46.826;8.650;2023-05-23T00:47:39;96058.59;;;15.39;100.00
11085;BME280;5596;46.826;8.650;2023-05-23T00:50:09;96059.69;;;15.38;100.00
11085;BME280;5596;46.826;8.650;2023-05-23T00:52:37;96070.31;;;15.39;100.00
11085;BME280;5596;46.826;8.650;2023-05-23T00:55:05;96064.00;;;15.34;100.00
11085;BME280;5596;46.826;8.650;2023-05-23T00:57:32;96069.13;;;15.25;100.00
11085;BME280;5596;46.826;8.650;2023-05-23T01:00:01;96078.13;;;15.26;100.00
11085;BME280;5596;46.826;8.650;2023-05-23T01:02:29;96074.06;;;15.28;100.00
11085;BME280;5596;46.826;8.650;2023-05-23T01:05:00;96074.88;;;15.34;100.00
11085;BME280;5596;46.826;8.650;2023-05-23T01:07:29;96076.50;;;15.30;100.00
11085;BME280;5596;46.826;8.650;2023-05-23T01:09:56;96084.06;;;15.18;100.00
11085;BME280;5596;46.826;8.650;2023-05-23T01:12:24;96085.72;;;15.19;100.00
11085;BME280;5596;46.826;8.650;2023-05-23T01:14:55;96078.63;;;15.18;100.00
11085;BME280;5596;46.826;8.650;2023-05-23T01:17:28;96087.09;;;15.21;100.00
11085;BME280;5596;46.826;8.650;2023-05-23T01:19:59;96078.13;;;15.21;100.00
11085;BME280;5596;46.826;8.650;2023-05-23T01:22:32;96092.25;;;15.23;100.00
11085;BME280;5596;46.826;8.650;2023-05-23T01:25:06;96097.16;;;15.26;100.00
11085;BME280;5596;46.826;8.650;2023-05-23T01:27:50;96097.69;;;15.23;100.00
11085;BME280;5596;46.826;8.650;2023-05-23T01:30:19;96093.59;;;15.20;100.00
11085;BME280;5596;46.826;8.650;2023-05-23T01:32:46;96091.66;;;15.15;100.00
11085;BME280;5596;46.826;8.650;2023-05-23T01:35:15;96093.84;;;15.13;100.00
11085;BME280;5596;46.826;8.650;2023-05-23T01:37:46;96088.41;;;15.13;100.00
11085;BME280;5596;46.826;8.650;2023-05-23T01:40:15;96089.75;;;15.11;100.00
11085;BME280;5596;46.826;8.650;2023-05-23T01:42:43;96088.94;;;15.10;100.00
11085;BME280;5596;46.826;8.650;2023-05-23T01:45:11;96079.66;;;15.06;100.00
11085;BME280;5596;46.826;8.650;2023-05-23T01:47:38;96077.50;;;15.03;100.00
11085;BME280;5596;46.826;8.650;2023-05-23T01:50:06;96076.41;;;15.04;100.00
11085;BME280;5596;46.826;8.650;2023-05-23T01:52:34;96076.94;;;15.01;100.00
11085;BME280;5596;46.826;8.650;2023-05-23T01:55:01;96073.66;;;14.99;100.00
11085;BME280;5596;46.826;8.650;2023-05-23T01:57:30;96069.03;;;14.95;100.00
11085;BME280;5596;46.826;8.650;2023-05-23T01:59:58;96078.50;;;14.87;100.00
11085;BME280;5596;46.826;8.650;2023-05-23T02:02:27;96078.38;;;14.72;100.00
11085;BME280;5596;46.826;8.650;2023-05-23T02:04:54;96077.31;;;14.73;100.00
11085;BME280;5596;46.826;8.650;2023-05-23T02:07:22;96075.41;;;14.68;100.00
11085;BME280;5596;46.826;8.650;2023-05-23T02:09:49;96079.44;;;14.66;100.00
11085;BME280;5596;46.826;8.650;2023-05-23T02:12:16;96079.44;;;14.66;100.00
11085;BME280;5596;46.826;8.650;2023-05-23T02:14:44;96074.84;;;14.66;100.00
11085;BME280;5596;46.826;8.650;2023-05-23T02:17:11;96077.28;;;14.68;100.00
11085;BME280;5596;46.826;8.650;2023-05-23T02:19:40;96083.28;;;14.70;100.00
11085;BME280;5596;46.826;8.650;2023-05-23T02:22:07;96077.56;;;14.66;100.00
11085;BME280;5596;46.826;8.650;2023-05-23T02:24:34;96081.59;;;14.64;100.00
11085;BME280;5596;46.826;8.650;2023-05-23T02:27:01;96089.22;;;14.62;100.00
11085;BME280;5596;46.826;8.650;2023-05-23T02:29:28;96089.50;;;14.65;100.00
11085;BME280;5596;46.826;8.650;2023-05-23T02:31:54;96081.59;;;14.64;100.00
11085;BME280;5596;46.826;8.650;2023-05-23T02:34:21;96090.03;;;14.62;100.00
11085;BME280;5596;46.826;8.650;2023-05-23T02:36:50;96088.94;;;14.63;100.00
11085;BME280;5596;46.826;8.650;2023-05-23T02:39:16;96091.94;;;14.62;100.00
11085;BME280;5596;46.826;8.650;2023-05-23T02:41:45;96088.88;;;14.53;100.00
11085;BME280;5596;46.826;8.650;2023-05-23T02:44:11;96094.50;;;14.42;100.00
11085;BME280;5596;46.826;8.650;2023-05-23T02:46:38;96087.84;;;14.27;100.00
11085;BME280;5596;46.826;8.650;2023-05-23T02:49:05;96095.41;;;14.20;100.00
11085;BME280;5596;46.826;8.650;2023-05-23T02:51:32;96098.31;;;14.14;100.00
11085;BME280;5596;46.826;8.650;2023-05-23T02:54:00;96092.28;;;14.07;100.00
11085;BME280;5596;46.826;8.650;2023-05-23T02:56:27;96099.31;;;14.02;100.00
11085;BME280;5596;46.826;8.650;2023-05-23T02:58:55;96092.47;;;13.95;100.00
11085;BME280;5596;46.826;8.650;2023-05-23T03:01:21;96090.19;;;13.87;100.00
11085;BME280;5596;46.826;8.650;2023-05-23T03:03:48;96087.94;;;13.79;100.00
11085;BME280;5596;46.826;8.650;2023-05-23T03:06:15;96092.63;;;13.83;100.00
11085;BME280;5596;46.826;8.650;2023-05-23T03:08:42;96094.72;;;13.76;100.00
11085;BME280;5596;46.826;8.650;2023-05-23T03:11:10;96096.91;;;13.79;100.00
11085;BME280;5596;46.826;8.650;2023-05-23T03:13:38;96099.84;;;13.73;100.00
11085;BME280;5596;46.826;8.650;2023-05-23T03:16:05;96105.81;;;13.75;100.00
11085;BME280;5596;46.826;8.650;2023-05-23T03:18:32;96101.78;;;13.77;100.00
11085;BME280;5596;46.826;8.650;2023-05-23T03:21:00;96103.72;;;13.82;100.00
11085;BME280;5596;46.826;8.650;2023-05-23T03:23:27;96108.13;;;13.88;100.00
11085;BME280;5596;46.826;8.650;2023-05-23T03:25:54;96118.97;;;13.88;100.00
11085;BME280;5596;46.826;8.650;2023-05-23T03:28:22;96123.06;;;13.90;100.00
11085;BME280;5596;46.826;8.650;2023-05-23T03:30:50;96121.44;;;13.89;100.00
11085;BME280;5596;46.826;8.650;2023-05-23T03:33:18;96113.03;;;13.91;100.00
11085;BME280;5596;46.826;8.650;2023-05-23T03:35:45;96111.47;;;13.95;100.00
11085;BME280;5596;46.826;8.650;2023-05-23T03:38:12;96108.94;;;13.88;100.00
11085;BME280;5596;46.826;8.650;2023-05-23T03:40:39;96117.53;;;13.80;100.00
11085;BME280;5596;46.826;8.650;2023-05-23T03:43:07;96111.19;;;13.70;100.00
11085;BME280;5596;46.826;8.650;2023-05-23T03:45:38;96112.31;;;13.74;100.00
11085;BME280;5596;46.826;8.650;2023-05-23T03:48:10;96115.00;;;13.69;100.00
11085;BME280;5596;46.826;8.650;2023-05-23T03:50:38;96115.00;;;13.69;100.00
11085;BME280;5596;46.826;8.650;2023-05-23T03:53:06;96116.13;;;13.73;100.00
11085;BME280;5596;46.826;8.650;2023-05-23T03:55:34;96122.94;;;13.75;100.00
11085;BME280;5596;46.826;8.650;2023-05-23T03:58:00;96116.91;;;13.68;100.00
11085;BME280;5596;46.826;8.650;2023-05-23T04:00:27;96111.09;;;13.59;100.00
11085;BME280;5596;46.826;8.650;2023-05-23T04:02:56;96110.78;;;13.56;100.00
11085;BME280;5596;46.826;8.650;2023-05-23T04:05:23;96111.59;;;13.56;100.00
11085;BME280;5596;46.826;8.650;2023-05-23T04:07:50;96116.00;;;13.62;100.00
11085;BME280;5596;46.826;8.650;2023-05-23T04:10:18;96118.72;;;13.62;100.00
11085;BME280;5596;46.826;8.650;2023-05-23T04:12:45;96113.84;;;13.64;100.00
11085;BME280;5596;46.826;8.650;2023-05-23T04:15:15;96123.97;;;13.69;100.00
11085;BME280;5596;46.826;8.650;2023-05-23T04:17:56;96120.97;;;13.71;100.00
11085;BME280;5596;46.826;8.650;2023-05-23T04:20:25;96119.91;;;13.72;100.00
11085;BME280;5596;46.826;8.650;2023-05-23T04:22:52;96123.19;;;13.74;100.00
11085;BME280;5596;46.826;8.650;2023-05-23T04:25:20;96124.88;;;13.80;100.00
11085;BME280;5596;46.826;8.650;2023-05-23T04:28:13;96126.25;;;13.82;100.00
11085;BME280;5596;46.826;8.650;2023-05-23T04:30:41;96133.81;;;13.80;100.00
11085;BME280;5596;46.826;8.650;2023-05-23T04:33:10;96135.97;;;13.78;100.00
11085;BME280;5596;46.826;8.650;2023-05-23T04:35:39;96140.28;;;13.74;100.00
11085;BME280;5596;46.826;8.650;2023-05-23T04:38:06;96135.69;;;13.75;100.00
11085;BME280;5596;46.826;8.650;2023-05-23T04:40:33;96140.53;;;13.73;100.00
11085;BME280;5596;46.826;8.650;2023-05-23T04:43:12;96144.88;;;13.74;100.00
11085;BME280;5596;46.826;8.650;2023-05-23T04:45:50;96145.47;;;13.76;100.00
11085;BME280;5596;46.826;8.650;2023-05-23T04:48:28;96150.09;;;13.80;100.00
11085;BME280;5596;46.826;8.650;2023-05-23T04:50:55;96149.09;;;13.86;100.00
11085;BME280;5596;46.826;8.650;2023-05-23T04:53:27;96154.81;;;13.90;100.00
11085;BME280;5596;46.826;8.650;2023-05-23T04:55:56;96153.19;;;13.89;100.00
11085;BME280;5596;46.826;8.650;2023-05-23T04:58:23;96162.94;;;13.85;100.00
11085;BME280;5596;46.826;8.650;2023-05-23T05:00:54;96158.50;;;13.79;100.00
11085;BME280;5596;46.826;8.650;2023-05-23T05:03:21;96171.25;;;13.78;100.00
11085;BME280;5596;46.826;8.650;2023-05-23T05:05:50;96173.72;;;13.80;100.00
11085;BME280;5596;46.826;8.650;2023-05-23T05:08:17;96175.09;;;13.82;100.00
11085;BME280;5596;46.826;8.650;2023-05-23T05:10:45;96181.09;;;13.84;100.00
11085;BME280;5596;46.826;8.650;2023-05-23T05:13:14;96187.41;;;13.90;100.00
11085;BME280;5596;46.826;8.650;2023-05-23T05:15:45;96186.13;;;13.97;100.00
11085;BME280;5596;46.826;8.650;2023-05-23T05:18:12;96188.09;;;14.02;100.00
11085;BME280;5596;46.826;8.650;2023-05-23T05:20:39;96187.00;;;14.03;100.00
11085;BME280;5596;46.826;8.650;2023-05-23T05:23:08;96185.16;;;14.09;100.00
11085;BME280;5596;46.826;8.650;2023-05-23T05:25:36;96187.63;;;14.10;100.00
11085;BME280;5596;46.826;8.650;2023-05-23T05:28:03;96189.31;;;14.16;100.00
11085;BME280;5596;46.826;8.650;2023-05-23T05:30:32;96198.06;;;14.23;100.00
11085;BME280;5596;46.826;8.650;2023-05-23T05:33:00;96190.47;;;14.25;100.00
11085;BME280;5596;46.826;8.650;2023-05-23T05:35:29;96192.41;;;14.30;100.00
11085;BME280;5596;46.826;8.650;2023-05-23T05:37:56;96198.72;;;14.35;100.00
11085;BME280;5596;46.826;8.650;2023-05-23T05:40:24;96191.25;;;14.48;100.00
11085;BME280;5596;46.826;8.650;2023-05-23T05:42:51;96193.97;;;14.48;100.00
11085;BME280;5596;46.826;8.650;2023-05-23T05:45:17;96198.06;;;14.50;100.00
11085;BME280;5596;46.826;8.650;2023-05-23T05:47:47;96192.47;;;14.62;100.00
11085;BME280;5596;46.826;8.650;2023-05-23T05:50:13;96190.03;;;14.65;100.00
11085;BME280;5596;46.826;8.650;2023-05-23T05:52:40;96183.50;;;14.61;100.00
11085;BME280;5596;46.826;8.650;2023-05-23T05:55:09;96189.44;;;14.58;100.00
11085;BME280;5596;46.826;8.650;2023-05-23T05:57:38;96187.56;;;14.59;100.00
11085;BME280;5596;46.826;8.650;2023-05-23T06:00:07;96185.34;;;14.56;100.00
11085;BME280;5596;46.826;8.650;2023-05-23T06:02:44;96183.16;;;14.53;100.00
11085;BME280;5596;46.826;8.650;2023-05-23T06:05:15;96181.81;;;14.55;100.00
11085;BME280;5596;46.826;8.650;2023-05-23T06:07:42;96176.38;;;14.55;100.00
11085;BME280;5596;46.826;8.650;2023-05-23T06:10:09;96173.13;;;14.58;100.00
11085;BME280;5596;46.826;8.650;2023-05-23T06:12:38;96169.94;;;14.66;100.00
11085;BME280;5596;46.826;8.650;2023-05-23T06:15:07;96173.31;;;14.79;100.00
11085;BME280;5596;46.826;8.650;2023-05-23T06:17:36;96172.00;;;14.86;100.00
11085;BME280;5596;46.826;8.650;2023-05-23T06:20:03;96176.34;;;14.87;100.00
11085;BME280;5596;46.826;8.650;2023-05-23T06:22:31;96171.75;;;14.88;100.00
11085;BME280;5596;46.826;8.650;2023-05-23T06:24:58;96178.03;;;14.98;100.00
11085;BME280;5596;46.826;8.650;2023-05-23T06:27:24;96176.47;;;15.07;100.00
11085;BME280;5596;46.826;8.650;2023-05-23T06:29:53;96180.91;;;15.19;100.00
11085;BME280;5596;46.826;8.650;2023-05-23T06:32:20;96186.69;;;15.32;100.00
11085;BME280;5596;46.826;8.650;2023-05-23T06:34:50;96178.06;;;15.45;100.00
11085;BME280;5596;46.826;8.650;2023-05-23T06:37:17;96172.97;;;15.59;100.00
11085;BME280;5596;46.826;8.650;2023-05-23T06:39:44;96177.06;;;15.62;100.00
11085;BME280;5596;46.826;8.650;2023-05-23T06:42:11;96166.44;;;15.65;100.00
11085;BME280;5596;46.826;8.650;2023-05-23T06:44:54;96166.44;;;15.65;100.00
11085;BME280;5596;46.826;8.650;2023-05-23T06:47:21;96164.84;;;15.69;100.00
11085;BME280;5596;46.826;8.650;2023-05-23T06:49:48;96160.78;;;15.72;100.00
11085;BME280;5596;46.826;8.650;2023-05-23T06:52:14;96154.78;;;15.70;100.00
11085;BME280;5596;46.826;8.650;2023-05-23T06:54:43;96157.25;;;15.76;100.00
11085;BME280;5596;46.826;8.650;2023-05-23T06:57:10;96152.91;;;15.85;100.00
11085;BME280;5596;46.826;8.650;2023-05-23T06:59:37;96154.03;;;15.95;100.00
11085;BME280;5596;46.826;8.650;2023-05-23T07:02:05;96145.88;;;16.05;100.00
11085;BME280;5596;46.826;8.650;2023-05-23T07:04:32;96146.19;;;16.13;100.00
11085;BME280;5596;46.826;8.650;2023-05-23T07:07:07;96155.72;;;16.21;100.00
11085;BME280;5596;46.826;8.650;2023-05-23T07:09:34;96156.56;;;16.32;100.00
11085;BME280;5596;46.826;8.650;2023-05-23T07:12:07;96154.97;;;16.66;100.00
11085;BME280;5596;46.826;8.650;2023-05-23T07:14:37;96144.84;;;16.97;100.00
11085;BME280;5596;46.826;8.650;2023-05-23T07:17:06;96150.47;;;17.31;100.00
11085;BME280;5596;46.826;8.650;2023-05-23T07:19:33;96141.69;;;17.49;100.00
11085;BME280;5596;46.826;8.650;2023-05-23T07:22:00;96155.03;;;17.56;100.00
11085;BME280;5596;46.826;8.650;2023-05-23T07:24:28;96151.28;;;17.42;100.00
11085;BME280;5596;46.826;8.650;2023-05-23T07:26:55;96157.25;;;17.49;100.00
11085;BME280;5596;46.826;8.650;2023-05-23T07:29:23;96151.00;;;17.43;100.00
11085;BME280;5596;46.826;8.650;2023-05-23T07:31:52;96146.34;;;17.38;100.00
11085;BME280;5596;46.826;8.650;2023-05-23T07:34:21;96149.63;;;17.40;100.00
11085;BME280;5596;46.826;8.650;2023-05-23T07:36:56;96151.22;;;17.62;100.00
11085;BME280;5596;46.826;8.650;2023-05-23T07:39:25;96150.50;;;17.95;100.00
11085;BME280;5596;46.826;8.650;2023-05-23T07:41:54;96157.66;;;18.30;100.00
11085;BME280;5596;46.826;8.650;2023-05-23T07:44:21;96149.00;;;18.62;100.00
11085;BME280;5596;46.826;8.650;2023-05-23T07:46:48;96150.31;;;18.99;100.00
11085;BME280;5596;46.826;8.650;2023-05-23T07:49:15;96138.81;;;19.25;100.00
11085;BME280;5596;46.826;8.650;2023-05-23T07:51:43;96139.16;;;19.48;100.00
11085;BME280;5596;46.826;8.650;2023-05-23T07:54:10;96141.88;;;19.72;100.00
11085;BME280;5596;46.826;8.650;2023-05-23T07:56:39;96141.69;;;19.87;100.00
11085;BME280;5596;46.826;8.650;2023-05-23T07:59:06;96143.84;;;20.09;100.00
11085;BME280;5596;46.826;8.650;2023-05-23T08:01:34;96147.81;;;20.40;100.00
11085;BME280;5596;46.826;8.650;2023-05-23T08:04:03;96143.03;;;20.64;98.41
11085;BME280;5596;46.826;8.650;2023-05-23T08:06:38;96149.59;;;20.50;98.82
11085;BME280;5596;46.826;8.650;2023-05-23T08:09:10;96152.25;;;20.55;98.34
11085;BME280;5596;46.826;8.650;2023-05-23T08:11:41;96145.72;;;20.51;99.66
11085;BME280;5596;46.826;8.650;2023-05-23T08:14:09;96153.13;;;20.31;100.00
11085;BME280;5596;46.826;8.650;2023-05-23T08:16:36;96149.78;;;20.16;100.00
11085;BME280;5596;46.826;8.650;2023-05-23T08:19:15;96143.47;;;19.96;100.00
11085;BME280;5596;46.826;8.650;2023-05-23T08:21:43;96143.06;;;19.84;100.00
11085;BME280;5596;46.826;8.650;2023-05-23T08:24:12;96134.94;;;19.79;100.00
11085;BME280;5596;46.826;8.650;2023-05-23T08:26:39;96145.00;;;19.84;100.00
11085;BME280;5596;46.826;8.650;2023-05-23T08:29:09;96129.31;;;19.89;100.00
11085;BME280;5596;46.826;8.650;2023-05-23T08:31:36;96130.97;;;19.90;100.00
11085;BME280;5596;46.826;8.650;2023-05-23T08:34:05;96142.03;;;19.99;100.00
11085;BME280;5596;46.826;8.650;2023-05-23T08:36:34;96136.56;;;19.99;100.00
11085;BME280;5596;46.826;8.650;2023-05-23T08:39:01;96147.13;;;20.29;100.00
11085;BME280;5596;46.826;8.650;2023-05-23T08:41:34;96141.69;;;20.62;100.00
11085;BME280;5596;46.826;8.650;2023-05-23T08:44:06;96147.81;;;20.91;100.00
11085;BME280;5596;46.826;8.650;2023-05-23T08:46:38;96156.88;;;20.92;100.00
11085;BME280;5596;46.826;8.650;2023-05-23T08:49:06;96158.91;;;21.00;100.00
11085;BME280;5596;46.826;8.650;2023-05-23T08:51:33;96154.94;;;21.25;100.00
11085;BME280;5596;46.826;8.650;2023-05-23T08:54:04;96159.03;;;21.08;100.00
11085;BME280;5596;46.826;8.650;2023-05-23T08:56:35;96158.28;;;20.89;100.00
11085;BME280;5596;46.826;8.650;2023-05-23T08:59:03;96157.22;;;20.85;100.00
11085;BME280;5596;46.826;8.650;2023-05-23T09:01:30;96164.97;;;20.83;100.00
11085;BME280;5596;46.826;8.650;2023-05-23T09:04:00;96165.25;;;20.82;100.00
11085;BME280;5596;46.826;8.650;2023-05-23T09:06:52;96170.00;;;20.76;100.00
11085;BME280;5596;46.826;8.650;2023-05-23T09:09:21;96169.06;;;20.67;100.00
11085;BME280;5596;46.826;8.650;2023-05-23T09:11:49;96171.69;;;20.58;100.00
11085;BME280;5596;46.826;8.650;2023-05-23T09:14:17;96173.75;;;20.48;100.00
11085;BME280;5596;46.826;8.650;2023-05-23T09:16:45;96176.06;;;20.41;100.00
11085;BME280;5596;46.826;8.650;2023-05-23T09:19:14;96169.53;;;20.36;100.00
11085;BME280;5596;46.826;8.650;2023-05-23T09:21:47;96172.50;;;20.40;100.00
11085;BME280;5596;46.826;8.650;2023-05-23T09:24:22;96171.88;;;20.43;100.00
11085;BME280;5596;46.826;8.650;2023-05-23T09:26:51;96161.59;;;20.54;100.00
11085;BME280;5596;46.826;8.650;2023-05-23T09:29:18;96165.25;;;20.82;100.00
11085;BME280;5596;46.826;8.650;2023-05-23T09:31:45;96174.06;;;21.30;100.00
11085;BME280;5596;46.826;8.650;2023-05-23T09:34:12;96167.56;;;21.53;100.00
11085;BME280;5596;46.826;8.650;2023-05-23T09:36:39;96168.19;;;21.64;100.00
11085;BME280;5596;46.826;8.650;2023-05-23T09:39:09;96166.38;;;21.59;100.00
11085;BME280;5596;46.826;8.650;2023-05-23T09:41:37;96156.75;;;21.29;100.00
11085;BME280;5596;46.826;8.650;2023-05-23T09:44:06;96161.38;;;21.15;100.00
11085;BME280;5596;46.826;8.650;2023-05-23T09:46:34;96158.16;;;21.27;100.00
11085;BME280;5596;46.826;8.650;2023-05-23T09:49:01;96156.97;;;21.33;100.00
11085;BME280;5596;46.826;8.650;2023-05-23T09:51:27;96162.25;;;21.29;100.00
11085;BME280;5596;46.826;8.650;2023-05-23T09:53:55;96160.84;;;21.32;100.00
11085;BME280;5596;46.826;8.650;2023-05-23T09:56:21;96160.66;;;21.42;100.00
11085;BME280;5596;46.826;8.650;2023-05-23T09:58:49;96152.25;;;21.20;100.00
11085;BME280;5596;46.826;8.650;2023-05-23T10:01:17;96153.44;;;21.13;100.00
11085;BME280;5596;46.826;8.650;2023-05-23T10:03:47;96157.81;;;21.14;100.00
11085;BME280;5596;46.826;8.650;2023-05-23T10:06:16;96158.34;;;21.17;100.00
11085;BME280;5596;46.826;8.650;2023-05-23T10:08:44;96153.16;;;21.15;100.00
11085;BME280;5596;46.826;8.650;2023-05-23T10:13:57;96152.63;;;20.99;100.00
11085;BME280;5596;46.826;8.650;2023-05-23T10:16:27;96151.38;;;20.92;100.00
11085;BME280;5596;46.826;8.650;2023-05-23T10:18:58;96159.13;;;21.03;100.00
11085;BME280;5596;46.826;8.650;2023-05-23T10:21:28;96161.03;;;21.22;100.00
11085;BME280;5596;46.826;8.650;2023-05-23T10:23:57;96153.56;;;21.08;100.00
11085;BME280;5596;46.826;8.650;2023-05-23T10:26:25;96159.16;;;20.85;100.00
11085;BME280;5596;46.826;8.650;2023-05-23T10:28:52;96158.75;;;20.59;100.00
11085;BME280;5596;46.826;8.650;2023-05-23T10:31:19;96161.00;;;20.57;100.00
11085;BME280;5596;46.826;8.650;2023-05-23T10:33:49;96154.41;;;20.58;100.00
11085;BME280;5596;46.826;8.650;2023-05-23T10:36:20;96165.59;;;20.43;100.00
11085;BME280;5596;46.826;8.650;2023-05-23T10:38:49;96154.63;;;20.43;100.00
11085;BME280;5596;46.826;8.650;2023-05-23T10:41:21;96158.50;;;20.18;100.00
11085;BME280;5596;46.826;8.650;2023-05-23T10:43:50;96156.38;;;20.33;100.00
11085;BME280;5596;46.826;8.650;2023-05-23T10:46:19;96155.09;;;20.50;100.00
11085;BME280;5596;46.826;8.650;2023-05-23T10:48:50;96156.91;;;20.54;100.00
11085;BME280;5596;46.826;8.650;2023-05-23T10:51:19;96144.38;;;20.67;100.00
11085;BME280;5596;46.826;8.650;2023-05-23T10:53:51;96144.81;;;20.74;100.00
11085;BME280;5596;46.826;8.650;2023-05-23T10:56:19;96133.47;;;20.94;100.00
11085;BME280;5596;46.826;8.650;2023-05-23T10:58:50;96132.16;;;21.38;100.00
11085;BME280;5596;46.826;8.650;2023-05-23T11:01:17;96147.22;;;21.68;100.00
11085;BME280;5596;46.826;8.650;2023-05-23T11:03:52;96136.22;;;21.81;100.00
11085;BME280;5596;46.826;8.650;2023-05-23T11:06:29;96134.19;;;21.73;100.00
11085;BME280;5596;46.826;8.650;2023-05-23T11:09:08;96131.75;;;21.99;100.00
11085;BME280;5596;46.826;8.650;2023-05-23T11:11:52;96128.22;;;22.21;100.00
11085;BME280;5596;46.826;8.650;2023-05-23T11:14:19;96121.09;;;22.34;100.00
11085;BME280;5596;46.826;8.650;2023-05-23T11:16:46;96115.53;;;22.70;100.00
11085;BME280;5596;46.826;8.650;2023-05-23T11:19:21;96124.78;;;23.18;100.00
11085;BME280;5596;46.826;8.650;2023-05-23T11:21:51;96129.25;;;23.36;97.97
11085;BME280;5596;46.826;8.650;2023-05-23T11:24:20;96123.66;;;23.19;100.00
11085;BME280;5596;46.826;8.650;2023-05-23T11:26:53;96122.78;;;23.10;97.57
11085;BME280;5596;46.826;8.650;2023-05-23T11:29:25;96116.63;;;22.82;100.00
11085;BME280;5596;46.826;8.650;2023-05-23T11:31:53;96121.53;;;22.72;100.00
11085;BME280;5596;46.826;8.650;2023-05-23T11:34:22;96114.16;;;22.36;100.00
11085;BME280;5596;46.826;8.650;2023-05-23T11:36:51;96106.59;;;22.06;100.00
11085;BME280;5596;46.826;8.650;2023-05-23T11:39:18;96106.28;;;21.80;100.00
11085;BME280;5596;46.826;8.650;2023-05-23T11:41:49;96102.84;;;21.74;100.00
11085;BME280;5596;46.826;8.650;2023-05-23T11:44:15;96102.75;;;22.29;100.00
11085;BME280;5596;46.826;8.650;2023-05-23T11:46:44;96101.78;;;22.70;100.00
11085;BME280;5596;46.826;8.650;2023-05-23T11:49:26;96099.41;;;22.99;100.00
11085;BME280;5596;46.826;8.650;2023-05-23T11:51:53;96091.69;;;22.79;97.06
11085;BME280;5596;46.826;8.650;2023-05-23T11:54:21;96100.75;;;23.10;95.62
11085;BME280;5596;46.826;8.650;2023-05-23T11:56:48;96094.16;;;23.20;93.41
11085;BME280;5596;46.826;8.650;2023-05-23T11:59:17;96090.91;;;23.18;94.70
11085;BME280;5596;46.826;8.650;2023-05-23T12:01:46;96086.44;;;23.30;91.08
11085;BME280;5596;46.826;8.650;2023-05-23T12:04:14;96083.13;;;23.51;90.54
11085;BME280;5596;46.826;8.650;2023-05-23T12:06:44;96090.16;;;23.74;92.13
11085;BME280;5596;46.826;8.650;2023-05-23T12:09:11;96079.34;;;23.86;88.92
11085;BME280;5596;46.826;8.650;2023-05-23T12:11:38;96072.53;;;23.92;89.27
11085;BME280;5596;46.826;8.650;2023-05-23T12:14:05;96072.97;;;23.68;90.40
11085;BME280;5596;46.826;8.650;2023-05-23T12:16:32;96076.88;;;23.28;90.55
11085;BME280;5596;46.826;8.650;2023-05-23T12:19:03;96075.00;;;23.46;87.90
11085;BME280;5596;46.826;8.650;2023-05-23T12:21:42;96066.19;;;23.74;86.72
11085;BME280;5596;46.826;8.650;2023-05-23T12:24:11;96068.63;;;23.76;89.83
11085;BME280;5596;46.826;8.650;2023-05-23T12:26:44;96073.16;;;23.72;89.28
11085;BME280;5596;46.826;8.650;2023-05-23T12:29:12;96078.06;;;24.09;86.55
11085;BME280;5596;46.826;8.650;2023-05-23T12:31:40;96068.41;;;24.38;83.20
11085;BME280;5596;46.826;8.650;2023-05-23T12:34:07;96063.81;;;24.42;83.87
11085;BME280;5596;46.826;8.650;2023-05-23T12:36:33;96061.25;;;24.54;82.92
11085;BME280;5596;46.826;8.650;2023-05-23T12:39:04;96058.47;;;24.63;83.59
11085;BME280;5596;46.826;8.650;2023-05-23T12:41:33;96049.03;;;24.81;76.84
11085;BME280;5596;46.826;8.650;2023-05-23T12:44:01;96045.59;;;24.93;79.05
11085;BME280;5596;46.826;8.650;2023-05-23T12:46:28;96044.91;;;25.04;76.69
11085;BME280;5596;46.826;8.650;2023-05-23T12:48:55;96046.75;;;24.83;74.61
11085;BME280;5596;46.826;8.650;2023-05-23T12:51:22;96032.31;;;24.60;75.46
11085;BME280;5596;46.826;8.650;2023-05-23T12:53:49;96039.78;;;24.68;76.67
11085;BME280;5596;46.826;8.650;2023-05-23T12:56:17;96028.44;;;24.52;77.90
11085;BME280;5596;46.826;8.650;2023-05-23T12:58:44;96034.75;;;24.70;76.52
11085;BME280;5596;46.826;8.650;2023-05-23T13:01:10;96028.69;;;24.85;73.35
11085;BME280;5596;46.826;8.650;2023-05-23T13:03:38;96028.69;;;24.94;71.58
11085;BME280;5596;46.826;8.650;2023-05-23T13:06:05;96023.16;;;25.03;70.91
11085;BME280;5596;46.826;8.650;2023-05-23T13:08:32;96020.06;;;25.42;72.66
11085;BME280;5596;46.826;8.650;2023-05-23T13:10:58;96015.31;;;25.51;67.05
11085;BME280;5596;46.826;8.650;2023-05-23T13:13:30;96020.63;;;25.56;68.98